sensor_id;sensor_type;location;lat;lon;timestamp;temperature;humidity
15357;DHT22;7778;48.792;9.260;2023-04-25T00:01:57;9.50;99.90
15357;DHT22;7778;48.792;9.260;2023-04-25T00:04:43;9.50;99.90
15357;DHT22;7778;48.792;9.260;2023-04-25T00:07:30;9.60;99.90
15357;DHT22;7778;48.792;9.260;2023-04-25T00:10:18;9.70;99.90
15357;DHT22;7778;48.792;9.260;2023-04-25T00:13:04;9.70;99.90
15357;DHT22;7778;48.792;9.260;2023-04-25T00:15:50;9.80;99.90
15357;DHT22;7778;48.792;9.260;2023-04-25T00:18:37;9.90;99.90
15357;DHT22;7778;48.792;9.260;2023-04-25T00:21:23;9.80;99.90
15357;DHT22;7778;48.792;9.260;2023-04-25T00:24:09;9.70;99.90
15357;DHT22;7778;48.792;9.260;2023-04-25T00:26:56;9.70;99.90
15357;DHT22;7778;48.792;9.260;2023-04-25T00:29:42;9.80;99.90
15357;DHT22;7778;48.792;9.260;2023-04-25T00:32:28;9.70;99.90
15357;DHT22;7778;48.792;9.260;2023-04-25T00:35:14;9.60;99.90
15357;DHT22;7778;48.792;9.260;2023-04-25T00:38:00;9.70;99.90
15357;DHT22;7778;48.792;9.260;2023-04-25T00:40:45;9.60;99.90
15357;DHT22;7778;48.792;9.260;2023-04-25T00:43:33;9.50;99.90
15357;DHT22;7778;48.792;9.260;2023-04-25T00:46:19;9.60;99.90
15357;DHT22;7778;48.792;9.260;2023-04-25T00:49:05;9.60;99.90
15357;DHT22;7778;48.792;9.260;2023-04-25T00:51:51;9.50;99.90
15357;DHT22;7778;48.792;9.260;2023-04-25T00:54:38;9.40;99.90
15357;DHT22;7778;48.792;9.260;2023-04-25T00:57:24;9.50;99.90
15357;DHT22;7778;48.792;9.260;2023-04-25T01:00:13;9.40;99.90
15357;DHT22;7778;48.792;9.260;2023-04-25T01:03:00;9.30;99.90
15357;DHT22;7778;48.792;9.260;2023-04-25T01:05:47;9.40;99.90
15357;DHT22;7778;48.792;9.260;2023-04-25T01:08:34;9.40;99.90
15357;DHT22;7778;48.792;9.260;2023-04-25T01:11:21;9.40;99.90
15357;DHT22;7778;48.792;9.260;2023-04-25T01:14:07;9.50;99.90
15357;DHT22;7778;48.792;9.260;2023-04-25T01:16:54;9.40;99.90
15357;DHT22;7778;48.792;9.260;2023-04-25T01:19:41;9.30;99.90
15357;DHT22;7778;48.792;9.260;2023-04-25T01:22:28;9.20;99.90
15357;DHT22;7778;48.792;9.260;2023-04-25T01:25:16;9.10;99.90
15357;DHT22;7778;48.792;9.260;2023-04-25T01:28:02;9.00;99.90
15357;DHT22;7778;48.792;9.260;2023-04-25T01:30:49;9.10;99.90
15357;DHT22;7778;48.792;9.260;2023-04-25T01:33:36;9.30;99.90
15357;DHT22;7778;48.792;9.260;2023-04-25T01:36:23;9.30;99.90
15357;DHT22;7778;48.792;9.260;2023-04-25T01:39:10;9.40;99.90
15357;DHT22;7778;48.792;9.260;2023-04-25T01:41:58;9.30;99.90
15357;DHT22;7778;48.792;9.260;2023-04-25T01:44:45;9.40;99.90
15357;DHT22;7778;48.792;9.260;2023-04-25T01:47:31;9.30;99.90
15357;DHT22;7778;48.792;9.260;2023-04-25T01:50:18;9.30;99.90
15357;DHT22;7778;48.792;9.260;2023-04-25T01:53:04;9.30;99.90
15357;DHT22;7778;48.792;9.260;2023-04-25T01:55:51;9.30;99.90
15357;DHT22;7778;48.792;9.260;2023-04-25T01:58:37;9.30;99.90
15357;DHT22;7778;48.792;9.260;2023-04-25T02:01:22;9.40;99.90
15357;DHT22;7778;48.792;9.260;2023-04-25T02:04:08;9.20;99.90
15357;DHT22;7778;48.792;9.260;2023-04-25T02:06:53;9.20;99.90
15357;DHT22;7778;48.792;9.260;2023-04-25T02:09:39;9.20;99.90
15357;DHT22;7778;48.792;9.260;2023-04-25T02:12:27;9.20;99.90
15357;DHT22;7778;48.792;9.260;2023-04-25T02:15:13;9.10;99.90
15357;DHT22;7778;48.792;9.260;2023-04-25T02:17:58;9.10;99.90
15357;DHT22;7778;48.792;9.260;2023-04-25T02:20:45;9.20;99.90
15357;DHT22;7778;48.792;9.260;2023-04-25T02:23:30;9.20;99.90
15357;DHT22;7778;48.792;9.260;2023-04-25T02:26:16;9.20;99.90
15357;DHT22;7778;48.792;9.260;2023-04-25T02:29:03;9.20;99.90
15357;DHT22;7778;48.792;9.260;2023-04-25T02:31:48;9.40;99.90
15357;DHT22;7778;48.792;9.260;2023-04-25T02:34:34;9.30;99.90
15357;DHT22;7778;48.792;9.260;2023-04-25T02:37:19;9.30;99.90
15357;DHT22;7778;48.792;9.260;2023-04-25T02:40:06;9.10;99.90
15357;DHT22;7778;48.792;9.260;2023-04-25T02:42:52;9.10;99.90
15357;DHT22;7778;48.792;9.260;2023-04-25T02:45:39;9.00;99.90
15357;DHT22;7778;48.792;9.260;2023-04-25T02:48:25;9.10;99.90
15357;DHT22;7778;48.792;9.260;2023-04-25T02:51:11;9.10;99.90
15357;DHT22;7778;48.792;9.260;2023-04-25T02:53:56;9.20;99.90
15357;DHT22;7778;48.792;9.260;2023-04-25T02:56:42;9.20;99.90
15357;DHT22;7778;48.792;9.260;2023-04-25T02:59:27;9.20;99.90
15357;DHT22;7778;48.792;9.260;2023-04-25T03:02:14;9.10;99.90
15357;DHT22;7778;48.792;9.260;2023-04-25T03:05:00;9.00;99.90
15357;DHT22;7778;48.792;9.260;2023-04-25T03:07:47;9.10;99.90
15357;DHT22;7778;48.792;9.260;2023-04-25T03:10:32;9.20;99.90
15357;DHT22;7778;48.792;9.260;2023-04-25T03:13:18;9.20;99.90
15357;DHT22;7778;48.792;9.260;2023-04-25T03:16:04;9.30;99.90
15357;DHT22;7778;48.792;9.260;2023-04-25T03:18:51;9.30;99.90
15357;DHT22;7778;48.792;9.260;2023-04-25T03:21:37;9.10;99.90
15357;DHT22;7778;48.792;9.260;2023-04-25T03:24:22;9.00;99.90
15357;DHT22;7778;48.792;9.260;2023-04-25T03:27:08;9.00;99.90
15357;DHT22;7778;48.792;9.260;2023-04-25T03:29:54;8.90;99.90
15357;DHT22;7778;48.792;9.260;2023-04-25T03:32:39;9.00;99.90
15357;DHT22;7778;48.792;9.260;2023-04-25T03:35:26;9.00;99.90
15357;DHT22;7778;48.792;9.260;2023-04-25T03:38:12;9.00;99.90
15357;DHT22;7778;48.792;9.260;2023-04-25T03:40:58;9.10;99.90
15357;DHT22;7778;48.792;9.260;2023-04-25T03:43:43;9.00;99.90
15357;DHT22;7778;48.792;9.260;2023-04-25T03:46:28;8.90;99.90
15357;DHT22;7778;48.792;9.260;2023-04-25T03:49:14;8.90;99.90
15357;DHT22;7778;48.792;9.260;2023-04-25T03:52:01;9.00;99.90
15357;DHT22;7778;48.792;9.260;2023-04-25T03:54:47;8.90;99.90
15357;DHT22;7778;48.792;9.260;2023-04-25T03:57:32;9.00;99.90
15357;DHT22;7778;48.792;9.260;2023-04-25T04:00:18;9.00;99.90
15357;DHT22;7778;48.792;9.260;2023-04-25T04:03:04;9.10;99.90
15357;DHT22;7778;48.792;9.260;2023-04-25T04:05:49;9.20;99.90
15357;DHT22;7778;48.792;9.260;2023-04-25T04:08:36;9.20;99.90
15357;DHT22;7778;48.792;9.260;2023-04-25T04:11:22;9.20;99.90
15357;DHT22;7778;48.792;9.260;2023-04-25T04:14:07;9.00;99.90
15357;DHT22;7778;48.792;9.260;2023-04-25T04:16:53;9.00;99.90
15357;DHT22;7778;48.792;9.260;2023-04-25T04:19:39;8.90;99.90
15357;DHT22;7778;48.792;9.260;2023-04-25T04:22:24;9.00;99.90
15357;DHT22;7778;48.792;9.260;2023-04-25T04:25:11;9.00;99.90
15357;DHT22;7778;48.792;9.260;2023-04-25T04:27:57;9.00;99.90
15357;DHT22;7778;48.792;9.260;2023-04-25T04:30:43;9.00;99.90
15357;DHT22;7778;48.792;9.260;2023-04-25T04:33:31;9.10;99.90
15357;DHT22;7778;48.792;9.260;2023-04-25T04:36:16;9.20;99.90
15357;DHT22;7778;48.792;9.260;2023-04-25T04:39:06;9.20;99.90
15357;DHT22;7778;48.792;9.260;2023-04-25T04:41:54;9.20;99.90
15357;DHT22;7778;48.792;9.260;2023-04-25T04:44:40;9.10;99.90
15357;DHT22;7778;48.792;9.260;2023-04-25T04:47:28;9.10;99.90
15357;DHT22;7778;48.792;9.260;2023-04-25T04:50:16;9.10;99.90
15357;DHT22;7778;48.792;9.260;2023-04-25T04:53:03;9.20;99.90
15357;DHT22;7778;48.792;9.260;2023-04-25T04:55:54;9.10;99.90
15357;DHT22;7778;48.792;9.260;2023-04-25T04:58:41;9.00;99.90
15357;DHT22;7778;48.792;9.260;2023-04-25T05:01:28;9.10;99.90
15357;DHT22;7778;48.792;9.260;2023-04-25T05:04:14;9.20;99.90
15357;DHT22;7778;48.792;9.260;2023-04-25T05:06:59;9.20;99.90
15357;DHT22;7778;48.792;9.260;2023-04-25T05:09:45;9.00;99.90
15357;DHT22;7778;48.792;9.260;2023-04-25T05:12:30;9.10;99.90
15357;DHT22;7778;48.792;9.260;2023-04-25T05:15:17;9.20;99.90
15357;DHT22;7778;48.792;9.260;2023-04-25T05:18:03;9.30;99.90
15357;DHT22;7778;48.792;9.260;2023-04-25T05:20:49;9.20;99.90
15357;DHT22;7778;48.792;9.260;2023-04-25T05:23:35;9.20;99.90
15357;DHT22;7778;48.792;9.260;2023-04-25T05:26:20;9.10;99.90
15357;DHT22;7778;48.792;9.260;2023-04-25T05:29:06;9.10;99.90
15357;DHT22;7778;48.792;9.260;2023-04-25T05:31:53;9.30;99.90
15357;DHT22;7778;48.792;9.260;2023-04-25T05:34:38;9.40;99.90
15357;DHT22;7778;48.792;9.260;2023-04-25T05:37:24;9.50;99.90
15357;DHT22;7778;48.792;9.260;2023-04-25T05:40:10;9.50;99.90
15357;DHT22;7778;48.792;9.260;2023-04-25T05:42:59;9.50;99.90
15357;DHT22;7778;48.792;9.260;2023-04-25T05:45:44;9.30;99.90
15357;DHT22;7778;48.792;9.260;2023-04-25T05:48:32;9.40;99.90
15357;DHT22;7778;48.792;9.260;2023-04-25T05:51:17;9.30;99.90
15357;DHT22;7778;48.792;9.260;2023-04-25T05:54:03;9.40;99.90
15357;DHT22;7778;48.792;9.260;2023-04-25T05:56:49;9.40;99.90
15357;DHT22;7778;48.792;9.260;2023-04-25T05:59:34;9.20;99.90
15357;DHT22;7778;48.792;9.260;2023-04-25T06:02:20;9.20;99.90
15357;DHT22;7778;48.792;9.260;2023-04-25T06:05:08;9.20;99.90
15357;DHT22;7778;48.792;9.260;2023-04-25T06:07:54;9.10;99.90
15357;DHT22;7778;48.792;9.260;2023-04-25T06:10:39;9.10;99.90
15357;DHT22;7778;48.792;9.260;2023-04-25T06:13:25;9.10;99.90
15357;DHT22;7778;48.792;9.260;2023-04-25T06:16:11;9.30;99.90
15357;DHT22;7778;48.792;9.260;2023-04-25T06:18:56;9.30;99.90
15357;DHT22;7778;48.792;9.260;2023-04-25T06:21:44;9.50;99.90
15357;DHT22;7778;48.792;9.260;2023-04-25T06:24:30;9.60;99.90
15357;DHT22;7778;48.792;9.260;2023-04-25T06:27:15;9.50;99.90
15357;DHT22;7778;48.792;9.260;2023-04-25T06:30:01;9.40;99.90
15357;DHT22;7778;48.792;9.260;2023-04-25T06:32:46;9.50;99.90
15357;DHT22;7778;48.792;9.260;2023-04-25T06:35:32;9.70;99.90
15357;DHT22;7778;48.792;9.260;2023-04-25T06:38:19;9.80;99.90
15357;DHT22;7778;48.792;9.260;2023-04-25T06:41:04;10.10;99.90
15357;DHT22;7778;48.792;9.260;2023-04-25T06:43:50;10.40;99.90
15357;DHT22;7778;48.792;9.260;2023-04-25T06:46:36;10.70;99.90
15357;DHT22;7778;48.792;9.260;2023-04-25T06:49:21;10.90;99.90
15357;DHT22;7778;48.792;9.260;2023-04-25T06:52:07;11.00;99.90
15357;DHT22;7778;48.792;9.260;2023-04-25T06:54:56;11.10;99.90
15357;DHT22;7778;48.792;9.260;2023-04-25T06:57:41;11.00;99.90
15357;DHT22;7778;48.792;9.260;2023-04-25T07:00:27;11.00;99.90
15357;DHT22;7778;48.792;9.260;2023-04-25T07:03:14;11.00;99.90
15357;DHT22;7778;48.792;9.260;2023-04-25T07:05:59;10.90;99.90
15357;DHT22;7778;48.792;9.260;2023-04-25T07:08:45;11.10;99.90
15357;DHT22;7778;48.792;9.260;2023-04-25T07:11:32;11.30;99.90
15357;DHT22;7778;48.792;9.260;2023-04-25T07:14:17;11.30;99.90
15357;DHT22;7778;48.792;9.260;2023-04-25T07:17:03;11.20;99.90
15357;DHT22;7778;48.792;9.260;2023-04-25T07:19:50;11.00;99.90
15357;DHT22;7778;48.792;9.260;2023-04-25T07:22:36;10.70;99.90
15357;DHT22;7778;48.792;9.260;2023-04-25T07:25:21;10.50;99.90
15357;DHT22;7778;48.792;9.260;2023-04-25T07:28:08;10.50;99.90
15357;DHT22;7778;48.792;9.260;2023-04-25T07:30:54;10.50;99.90
15357;DHT22;7778;48.792;9.260;2023-04-25T07:33:39;10.60;99.90
15357;DHT22;7778;48.792;9.260;2023-04-25T07:36:25;10.60;99.90
15357;DHT22;7778;48.792;9.260;2023-04-25T07:39:11;10.80;99.90
15357;DHT22;7778;48.792;9.260;2023-04-25T07:41:56;10.50;99.90
15357;DHT22;7778;48.792;9.260;2023-04-25T07:44:45;10.50;99.90
15357;DHT22;7778;48.792;9.260;2023-04-25T07:47:31;10.60;99.90
15357;DHT22;7778;48.792;9.260;2023-04-25T07:50:16;10.50;99.90
15357;DHT22;7778;48.792;9.260;2023-04-25T07:53:02;10.60;99.90
15357;DHT22;7778;48.792;9.260;2023-04-25T07:55:47;10.40;99.90
15357;DHT22;7778;48.792;9.260;2023-04-25T07:58:33;10.40;99.90
15357;DHT22;7778;48.792;9.260;2023-04-25T08:01:20;10.50;99.90
15357;DHT22;7778;48.792;9.260;2023-04-25T08:04:06;10.50;99.90
15357;DHT22;7778;48.792;9.260;2023-04-25T08:06:51;10.40;99.90
15357;DHT22;7778;48.792;9.260;2023-04-25T08:09:38;10.40;99.90
15357;DHT22;7778;48.792;9.260;2023-04-25T08:12:23;10.30;99.90
15357;DHT22;7778;48.792;9.260;2023-04-25T08:15:10;10.30;99.90
15357;DHT22;7778;48.792;9.260;2023-04-25T08:17:59;10.20;99.90
15357;DHT22;7778;48.792;9.260;2023-04-25T08:20:45;10.00;99.90
15357;DHT22;7778;48.792;9.260;2023-04-25T08:23:30;10.00;99.90
15357;DHT22;7778;48.792;9.260;2023-04-25T08:26:16;9.80;99.90
15357;DHT22;7778;48.792;9.260;2023-04-25T08:29:01;9.90;99.90
15357;DHT22;7778;48.792;9.260;2023-04-25T08:31:47;10.00;99.90
15357;DHT22;7778;48.792;9.260;2023-04-25T08:34:34;10.00;99.90
15357;DHT22;7778;48.792;9.260;2023-04-25T08:37:21;10.00;99.90
15357;DHT22;7778;48.792;9.260;2023-04-25T08:40:09;10.10;99.90
15357;DHT22;7778;48.792;9.260;2023-04-25T08:42:57;10.20;99.90
15357;DHT22;7778;48.792;9.260;2023-04-25T08:45:44;10.30;99.90
15357;DHT22;7778;48.792;9.260;2023-04-25T08:48:32;10.10;99.90
15357;DHT22;7778;48.792;9.260;2023-04-25T08:51:22;10.00;99.90
15357;DHT22;7778;48.792;9.260;2023-04-25T08:54:10;10.10;99.90
15357;DHT22;7778;48.792;9.260;2023-04-25T08:56:57;10.00;99.90
15357;DHT22;7778;48.792;9.260;2023-04-25T08:59:46;9.90;99.90
15357;DHT22;7778;48.792;9.260;2023-04-25T09:02:33;10.00;99.90
15357;DHT22;7778;48.792;9.260;2023-04-25T09:05:18;10.00;99.90
15357;DHT22;7778;48.792;9.260;2023-04-25T09:08:05;10.10;99.90
15357;DHT22;7778;48.792;9.260;2023-04-25T09:10:51;10.20;99.90
15357;DHT22;7778;48.792;9.260;2023-04-25T09:13:37;10.20;99.90
15357;DHT22;7778;48.792;9.260;2023-04-25T09:16:22;10.20;99.90
15357;DHT22;7778;48.792;9.260;2023-04-25T09:19:21;10.10;99.90
15357;DHT22;7778;48.792;9.260;2023-04-25T09:22:08;10.00;99.90
15357;DHT22;7778;48.792;9.260;2023-04-25T09:24:55;9.90;99.90
15357;DHT22;7778;48.792;9.260;2023-04-25T09:27:49;9.90;99.90
15357;DHT22;7778;48.792;9.260;2023-04-25T09:30:36;9.90;99.90
15357;DHT22;7778;48.792;9.260;2023-04-25T09:33:27;9.80;99.90
15357;DHT22;7778;48.792;9.260;2023-04-25T09:36:14;9.80;99.90
15357;DHT22;7778;48.792;9.260;2023-04-25T09:39:00;9.90;99.90
15357;DHT22;7778;48.792;9.260;2023-04-25T09:41:53;9.80;99.90
15357;DHT22;7778;48.792;9.260;2023-04-25T09:44:42;9.80;99.90
15357;DHT22;7778;48.792;9.260;2023-04-25T09:47:31;9.70;99.90
15357;DHT22;7778;48.792;9.260;2023-04-25T09:50:17;9.30;99.90
15357;DHT22;7778;48.792;9.260;2023-04-25T09:53:04;9.30;99.90
15357;DHT22;7778;48.792;9.260;2023-04-25T09:55:51;9.30;99.90
15357;DHT22;7778;48.792;9.260;2023-04-25T09:58:40;9.40;99.90
15357;DHT22;7778;48.792;9.260;2023-04-25T10:01:26;9.50;99.90
15357;DHT22;7778;48.792;9.260;2023-04-25T10:04:13;9.40;99.90
15357;DHT22;7778;48.792;9.260;2023-04-25T10:07:02;9.40;99.90
15357;DHT22;7778;48.792;9.260;2023-04-25T10:09:49;9.40;99.90
15357;DHT22;7778;48.792;9.260;2023-04-25T10:12:36;9.30;99.90
15357;DHT22;7778;48.792;9.260;2023-04-25T10:15:25;9.30;99.90
15357;DHT22;7778;48.792;9.260;2023-04-25T10:18:12;9.30;99.90
15357;DHT22;7778;48.792;9.260;2023-04-25T10:21:00;9.00;99.90
15357;DHT22;7778;48.792;9.260;2023-04-25T10:23:48;8.80;99.90
15357;DHT22;7778;48.792;9.260;2023-04-25T10:26:34;8.90;99.90
15357;DHT22;7778;48.792;9.260;2023-04-25T10:29:25;9.10;99.90
15357;DHT22;7778;48.792;9.260;2023-04-25T10:32:12;9.10;99.90
15357;DHT22;7778;48.792;9.260;2023-04-25T10:35:10;9.10;99.90
15357;DHT22;7778;48.792;9.260;2023-04-25T10:37:57;8.90;99.90
15357;DHT22;7778;48.792;9.260;2023-04-25T10:41:02;8.80;99.90
15357;DHT22;7778;48.792;9.260;2023-04-25T10:43:50;8.80;99.90
15357;DHT22;7778;48.792;9.260;2023-04-25T10:46:45;8.90;99.90
15357;DHT22;7778;48.792;9.260;2023-04-25T10:49:33;8.90;99.90
15357;DHT22;7778;48.792;9.260;2023-04-25T10:52:25;8.90;99.90
15357;DHT22;7778;48.792;9.260;2023-04-25T10:55:12;8.90;99.90
15357;DHT22;7778;48.792;9.260;2023-04-25T10:57:57;8.80;99.90
15357;DHT22;7778;48.792;9.260;2023-04-25T11:00:43;8.70;99.90
15357;DHT22;7778;48.792;9.260;2023-04-25T11:03:29;8.60;99.90
15357;DHT22;7778;48.792;9.260;2023-04-25T11:06:22;8.20;99.90
15357;DHT22;7778;48.792;9.260;2023-04-25T11:09:10;8.20;99.90
15357;DHT22;7778;48.792;9.260;2023-04-25T11:11:59;7.80;99.90
15357;DHT22;7778;48.792;9.260;2023-04-25T11:14:45;7.70;99.90
15357;DHT22;7778;48.792;9.260;2023-04-25T11:17:30;7.70;99.90
15357;DHT22;7778;48.792;9.260;2023-04-25T11:20:17;7.60;99.90
15357;DHT22;7778;48.792;9.260;2023-04-25T11:23:04;7.90;99.90
15357;DHT22;7778;48.792;9.260;2023-04-25T11:25:50;8.00;99.90
15357;DHT22;7778;48.792;9.260;2023-04-25T11:28:36;8.20;99.90
15357;DHT22;7778;48.792;9.260;2023-04-25T11:31:22;8.60;99.90
15357;DHT22;7778;48.792;9.260;2023-04-25T11:34:07;8.90;99.90
15357;DHT22;7778;48.792;9.260;2023-04-25T11:36:53;9.10;99.90
15357;DHT22;7778;48.792;9.260;2023-04-25T11:39:44;9.40;99.90
15357;DHT22;7778;48.792;9.260;2023-04-25T11:42:31;9.50;99.90
15357;DHT22;7778;48.792;9.260;2023-04-25T11:45:16;9.60;99.90
15357;DHT22;7778;48.792;9.260;2023-04-25T11:48:03;9.70;99.90
15357;DHT22;7778;48.792;9.260;2023-04-25T11:50:48;9.80;99.90
15357;DHT22;7778;48.792;9.260;2023-04-25T11:53:34;10.00;99.90
15357;DHT22;7778;48.792;9.260;2023-04-25T11:56:22;10.30;99.90
15357;DHT22;7778;48.792;9.260;2023-04-25T11:59:07;10.20;99.90
15357;DHT22;7778;48.792;9.260;2023-04-25T12:01:53;10.00;99.90
15357;DHT22;7778;48.792;9.260;2023-04-25T12:04:41;10.10;99.90
15357;DHT22;7778;48.792;9.260;2023-04-25T12:07:28;10.10;99.90
15357;DHT22;7778;48.792;9.260;2023-04-25T12:10:16;10.00;99.90
15357;DHT22;7778;48.792;9.260;2023-04-25T12:13:17;10.10;99.90
15357;DHT22;7778;48.792;9.260;2023-04-25T12:16:05;10.40;99.90
15357;DHT22;7778;48.792;9.260;2023-04-25T12:18:51;10.50;99.90
15357;DHT22;7778;48.792;9.260;2023-04-25T12:21:37;10.60;99.90
15357;DHT22;7778;48.792;9.260;2023-04-25T12:24:24;10.10;99.90
15357;DHT22;7778;48.792;9.260;2023-04-25T12:27:14;10.20;99.90
15357;DHT22;7778;48.792;9.260;2023-04-25T12:30:05;10.50;99.90
15357;DHT22;7778;48.792;9.260;2023-04-25T12:32:52;10.60;99.90
15357;DHT22;7778;48.792;9.260;2023-04-25T12:35:37;10.30;99.90
15357;DHT22;7778;48.792;9.260;2023-04-25T12:38:24;10.00;99.90
15357;DHT22;7778;48.792;9.260;2023-04-25T12:41:11;10.00;99.90
15357;DHT22;7778;48.792;9.260;2023-04-25T12:43:56;10.00;99.90
15357;DHT22;7778;48.792;9.260;2023-04-25T12:46:43;9.90;99.90
15357;DHT22;7778;48.792;9.260;2023-04-25T12:49:29;10.00;99.90
15357;DHT22;7778;48.792;9.260;2023-04-25T12:52:15;9.70;99.90
15357;DHT22;7778;48.792;9.260;2023-04-25T12:55:00;9.80;99.90
15357;DHT22;7778;48.792;9.260;2023-04-25T12:57:45;10.60;99.90
15357;DHT22;7778;48.792;9.260;2023-04-25T13:00:31;11.10;99.90
15357;DHT22;7778;48.792;9.260;2023-04-25T13:03:18;11.20;99.90
15357;DHT22;7778;48.792;9.260;2023-04-25T13:06:04;11.20;99.90
15357;DHT22;7778;48.792;9.260;2023-04-25T13:08:50;11.30;99.90
15357;DHT22;7778;48.792;9.260;2023-04-25T13:11:36;11.30;99.90
15357;DHT22;7778;48.792;9.260;2023-04-25T13:14:21;11.10;99.90
15357;DHT22;7778;48.792;9.260;2023-04-25T13:17:07;11.20;99.90
15357;DHT22;7778;48.792;9.260;2023-04-25T13:19:54;11.40;99.90
15357;DHT22;7778;48.792;9.260;2023-04-25T13:22:40;11.50;99.90
15357;DHT22;7778;48.792;9.260;2023-04-25T13:25:26;11.80;99.90
15357;DHT22;7778;48.792;9.260;2023-04-25T13:28:11;12.10;99.90
15357;DHT22;7778;48.792;9.260;2023-04-25T13:30:57;12.20;99.90
15357;DHT22;7778;48.792;9.260;2023-04-25T13:33:43;11.80;99.90
15357;DHT22;7778;48.792;9.260;2023-04-25T13:36:30;12.00;99.90
15357;DHT22;7778;48.792;9.260;2023-04-25T13:39:16;12.30;99.90
15357;DHT22;7778;48.792;9.260;2023-04-25T13:42:03;12.10;99.90
15357;DHT22;7778;48.792;9.260;2023-04-25T13:44:49;11.70;99.90
15357;DHT22;7778;48.792;9.260;2023-04-25T13:47:35;11.80;99.90
15357;DHT22;7778;48.792;9.260;2023-04-25T13:50:20;11.60;99.90
15357;DHT22;7778;48.792;9.260;2023-04-25T13:53:07;11.20;99.90
15357;DHT22;7778;48.792;9.260;2023-04-25T13:55:53;11.30;99.90
15357;DHT22;7778;48.792;9.260;2023-04-25T13:58:39;11.40;99.90
15357;DHT22;7778;48.792;9.260;2023-04-25T14:01:24;11.50;99.90
15357;DHT22;7778;48.792;9.260;2023-04-25T14:04:10;11.70;99.90
15357;DHT22;7778;48.792;9.260;2023-04-25T14:06:56;11.30;99.90
15357;DHT22;7778;48.792;9.260;2023-04-25T14:09:43;11.40;99.90
15357;DHT22;7778;48.792;9.260;2023-04-25T14:12:29;11.60;99.90
15357;DHT22;7778;48.792;9.260;2023-04-25T14:15:14;11.60;99.90
15357;DHT22;7778;48.792;9.260;2023-04-25T14:18:00;11.60;99.90
15357;DHT22;7778;48.792;9.260;2023-04-25T14:20:47;11.70;99.90
15357;DHT22;7778;48.792;9.260;2023-04-25T14:23:33;11.90;99.90
15357;DHT22;7778;48.792;9.260;2023-04-25T14:26:20;11.80;99.90
15357;DHT22;7778;48.792;9.260;2023-04-25T14:29:07;11.70;99.90
15357;DHT22;7778;48.792;9.260;2023-04-25T14:31:52;11.80;99.90
15357;DHT22;7778;48.792;9.260;2023-04-25T14:34:38;12.00;99.90
15357;DHT22;7778;48.792;9.260;2023-04-25T14:37:24;12.10;99.90
15357;DHT22;7778;48.792;9.260;2023-04-25T14:40:10;12.40;99.90
15357;DHT22;7778;48.792;9.260;2023-04-25T14:42:58;12.50;99.90
15357;DHT22;7778;48.792;9.260;2023-04-25T14:45:44;12.20;99.90
15357;DHT22;7778;48.792;9.260;2023-04-25T14:48:30;12.30;99.90
15357;DHT22;7778;48.792;9.260;2023-04-25T14:51:16;12.10;99.90
15357;DHT22;7778;48.792;9.260;2023-04-25T14:54:01;12.30;99.90
15357;DHT22;7778;48.792;9.260;2023-04-25T14:56:47;12.50;99.90
15357;DHT22;7778;48.792;9.260;2023-04-25T14:59:35;12.40;99.90
15357;DHT22;7778;48.792;9.260;2023-04-25T15:02:21;12.20;99.90
15357;DHT22;7778;48.792;9.260;2023-04-25T15:05:06;12.10;99.90
15357;DHT22;7778;48.792;9.260;2023-04-25T15:07:54;11.80;99.90
15357;DHT22;7778;48.792;9.260;2023-04-25T15:10:39;11.70;99.90
15357;DHT22;7778;48.792;9.260;2023-04-25T15:13:25;11.80;99.90
15357;DHT22;7778;48.792;9.260;2023-04-25T15:16:12;11.80;99.90
15357;DHT22;7778;48.792;9.260;2023-04-25T15:18:58;11.90;99.90
15357;DHT22;7778;48.792;9.260;2023-04-25T15:21:47;11.60;99.90
15357;DHT22;7778;48.792;9.260;2023-04-25T15:24:32;11.60;99.90
15357;DHT22;7778;48.792;9.260;2023-04-25T15:27:18;11.80;99.90
15357;DHT22;7778;48.792;9.260;2023-04-25T15:30:04;12.00;99.90
15357;DHT22;7778;48.792;9.260;2023-04-25T15:32:52;12.00;99.90
15357;DHT22;7778;48.792;9.260;2023-04-25T15:35:38;11.90;99.90
15357;DHT22;7778;48.792;9.260;2023-04-25T15:38:24;12.30;99.90
15357;DHT22;7778;48.792;9.260;2023-04-25T15:41:09;12.00;99.90
15357;DHT22;7778;48.792;9.260;2023-04-25T15:43:55;12.20;99.90
15357;DHT22;7778;48.792;9.260;2023-04-25T15:46:41;12.10;99.90
15357;DHT22;7778;48.792;9.260;2023-04-25T15:49:28;12.00;99.90
15357;DHT22;7778;48.792;9.260;2023-04-25T15:52:14;11.90;99.90
15357;DHT22;7778;48.792;9.260;2023-04-25T15:55:05;12.00;99.90
15357;DHT22;7778;48.792;9.260;2023-04-25T15:57:52;11.70;99.90
15357;DHT22;7778;48.792;9.260;2023-04-25T16:00:37;11.50;99.90
15357;DHT22;7778;48.792;9.260;2023-04-25T16:03:23;11.50;99.90
15357;DHT22;7778;48.792;9.260;2023-04-25T16:06:10;11.40;99.90
15357;DHT22;7778;48.792;9.260;2023-04-25T16:08:56;11.40;99.90
15357;DHT22;7778;48.792;9.260;2023-04-25T16:11:41;11.30;99.90
15357;DHT22;7778;48.792;9.260;2023-04-25T16:14:27;11.10;99.90
15357;DHT22;7778;48.792;9.260;2023-04-25T16:17:13;11.20;99.90
15357;DHT22;7778;48.792;9.260;2023-04-25T16:19:59;11.20;99.90
15357;DHT22;7778;48.792;9.260;2023-04-25T16:22:50;11.20;99.90
15357;DHT22;7778;48.792;9.260;2023-04-25T16:25:36;11.10;99.90
15357;DHT22;7778;48.792;9.260;2023-04-25T16:28:21;11.20;99.90
15357;DHT22;7778;48.792;9.260;2023-04-25T16:31:07;11.20;99.90
15357;DHT22;7778;48.792;9.260;2023-04-25T16:33:52;11.20;99.90
15357;DHT22;7778;48.792;9.260;2023-04-25T16:36:38;11.00;99.90
15357;DHT22;7778;48.792;9.260;2023-04-25T16:39:26;11.10;99.90
15357;DHT22;7778;48.792;9.260;2023-04-25T16:42:11;11.20;99.90
15357;DHT22;7778;48.792;9.260;2023-04-25T16:44:57;11.20;99.90
15357;DHT22;7778;48.792;9.260;2023-04-25T16:47:43;11.20;99.90
15357;DHT22;7778;48.792;9.260;2023-04-25T16:50:29;11.20;99.90
15357;DHT22;7778;48.792;9.260;2023-04-25T16:53:14;11.10;99.90
15357;DHT22;7778;48.792;9.260;2023-04-25T16:56:02;11.20;99.90
15357;DHT22;7778;48.792;9.260;2023-04-25T16:58:48;11.20;99.90
15357;DHT22;7778;48.792;9.260;2023-04-25T17:01:34;11.20;99.90
15357;DHT22;7778;48.792;9.260;2023-04-25T17:04:20;11.20;99.90
15357;DHT22;7778;48.792;9.260;2023-04-25T17:07:06;11.10;99.90
15357;DHT22;7778;48.792;9.260;2023-04-25T17:09:52;10.90;99.90
15357;DHT22;7778;48.792;9.260;2023-04-25T17:12:39;10.90;99.90
15357;DHT22;7778;48.792;9.260;2023-04-25T17:15:25;10.70;99.90
15357;DHT22;7778;48.792;9.260;2023-04-25T17:18:11;10.60;99.90
15357;DHT22;7778;48.792;9.260;2023-04-25T17:20:56;10.60;99.90
15357;DHT22;7778;48.792;9.260;2023-04-25T17:23:42;10.40;99.90
15357;DHT22;7778;48.792;9.260;2023-04-25T17:26:29;10.40;99.90
15357;DHT22;7778;48.792;9.260;2023-04-25T17:29:16;10.40;99.90
15357;DHT22;7778;48.792;9.260;2023-04-25T17:32:02;10.30;99.90
15357;DHT22;7778;48.792;9.260;2023-04-25T17:34:48;10.30;99.90
15357;DHT22;7778;48.792;9.260;2023-04-25T17:37:35;10.30;99.90
15357;DHT22;7778;48.792;9.260;2023-04-25T17:40:21;10.10;99.90
15357;DHT22;7778;48.792;9.260;2023-04-25T17:43:07;10.10;99.90
15357;DHT22;7778;48.792;9.260;2023-04-25T17:45:54;9.70;99.90
15357;DHT22;7778;48.792;9.260;2023-04-25T17:48:39;9.50;99.90
15357;DHT22;7778;48.792;9.260;2023-04-25T17:51:25;9.30;99.90
15357;DHT22;7778;48.792;9.260;2023-04-25T17:54:11;9.20;99.90
15357;DHT22;7778;48.792;9.260;2023-04-25T17:56:57;9.00;99.90
15357;DHT22;7778;48.792;9.260;2023-04-25T17:59:43;9.00;99.90